Time;durP1;ratioP1;P1;durP2;ratioP2;P2;SDS_P1;SDS_P2;PMS_P1;PMS_P2;Temp;Humidity;BMP_temperature;BMP_pressure;BME280_temperature;BME280_humidity;BME280_pressure;Samples;Min_cycle;Max_cycle;Signal;HPM_P1;HPM_P2
2021/08/02 00:02:34;;;;;;;5.97;1.40;;;14.80;99.90;;;;;;5095931;28;20059;-73
2021/08/02 00:05:03;;;;;;;2.25;1.40;;;14.80;99.90;;;;;;5095128;28;20119;-73
2021/08/02 00:07:36;;;;;;;3.55;1.63;;;14.70;99.90;;;;;;5096287;28;20044;-73
2021/08/02 00:10:16;;;;;;;5.90;1.45;;;14.80;99.90;;;;;;5095467;28;20078;-74
2021/08/02 00:12:47;;;;;;;3.40;1.38;;;14.80;99.90;;;;;;5095682;28;20054;-73
2021/08/02 00:15:16;;;;;;;7.95;1.63;;;14.80;99.90;;;;;;5095995;28;20032;-73
2021/08/02 00:17:45;;;;;;;5.22;1.80;;;14.80;99.90;;;;;;5095257;28;20036;-73
2021/08/02 00:20:19;;;;;;;3.55;1.20;;;14.80;99.90;;;;;;5095048;28;20036;-72
2021/08/02 00:22:45;;;;;;;7.20;1.60;;;14.80;99.90;;;;;;5095531;28;20036;-72
2021/08/02 00:25:12;;;;;;;3.90;1.40;;;14.80;99.90;;;;;;5095308;28;20039;-73
2021/08/02 00:27:38;;;;;;;3.55;1.60;;;14.80;99.90;;;;;;5094319;28;20037;-73
2021/08/02 00:30:06;;;;;;;5.45;1.77;;;14.70;99.90;;;;;;5093575;28;20040;-73
2021/08/02 00:32:33;;;;;;;4.93;1.73;;;14.70;99.90;;;;;;5094953;28;20422;-74
2021/08/02 00:35:00;;;;;;;5.93;2.15;;;14.70;99.90;;;;;;5094973;28;20036;-72
2021/08/02 00:37:42;;;;;;;4.72;1.63;;;14.70;99.90;;;;;;5095003;28;20063;-72
2021/08/02 00:40:50;;;;;;;4.53;1.75;;;14.70;99.90;;;;;;5095143;28;20047;-72
2021/08/02 00:43:45;;;;;;;9.50;1.92;;;14.70;99.90;;;;;;5095020;28;20043;-73
2021/08/02 00:46:13;;;;;;;2.63;1.35;;;14.70;99.90;;;;;;5094963;28;20075;-72
2021/08/02 00:48:58;;;;;;;3.60;1.83;;;14.70;99.90;;;;;;5094984;28;20078;-72
2021/08/02 00:51:30;;;;;;;11.52;1.77;;;14.70;99.90;;;;;;5094754;28;20039;-73
2021/08/02 00:54:00;;;;;;;3.35;1.60;;;14.70;99.90;;;;;;5094927;28;20396;-73
2021/08/02 00:56:31;;;;;;;8.68;2.00;;;14.70;99.90;;;;;;5095159;28;20036;-73
2021/08/02 00:59:04;;;;;;;3.55;1.50;;;14.70;99.90;;;;;;5094471;28;20044;-73
2021/08/02 01:01:32;;;;;;;3.88;1.75;;;14.70;99.90;;;;;;5094755;28;20111;-73
2021/08/02 01:04:00;;;;;;;4.25;1.80;;;14.70;99.90;;;;;;5094513;28;20032;-73
2021/08/02 01:06:29;;;;;;;7.50;2.40;;;14.70;99.90;;;;;;5094501;28;20043;-73
2021/08/02 01:08:55;;;;;;;6.38;2.00;;;14.70;99.90;;;;;;5094597;28;20040;-73
2021/08/02 01:11:24;;;;;;;4.47;1.70;;;14.60;99.90;;;;;;5094347;28;20089;-73
2021/08/02 01:13:51;;;;;;;7.05;1.88;;;14.70;99.90;;;;;;5094966;28;20032;-73
2021/08/02 01:16:17;;;;;;;3.38;1.40;;;14.70;99.90;;;;;;5094203;28;20421;-70
2021/08/02 01:18:45;;;;;;;4.65;1.75;;;14.60;99.90;;;;;;5093850;28;20109;-71
2021/08/02 01:21:13;;;;;;;4.65;2.22;;;14.60;99.90;;;;;;5094087;28;20422;-70
2021/08/02 01:23:39;;;;;;;5.47;1.83;;;14.60;99.90;;;;;;5094422;28;20472;-70
2021/08/02 01:26:23;;;;;;;5.95;2.10;;;14.60;99.90;;;;;;5094729;28;20047;-71
2021/08/02 01:29:26;;;;;;;6.45;2.03;;;14.60;99.90;;;;;;5094222;28;20541;-71
2021/08/02 01:31:52;;;;;;;4.03;1.70;;;14.60;99.90;;;;;;5093942;28;20040;-71
2021/08/02 01:34:18;;;;;;;5.47;1.60;;;14.60;99.90;;;;;;5094432;28;20038;-70
2021/08/02 01:36:44;;;;;;;8.60;2.15;;;14.70;99.90;;;;;;5094492;28;20100;-71
2021/08/02 01:39:09;;;;;;;6.15;1.83;;;14.70;99.90;;;;;;5093186;28;20155;-71
2021/08/02 01:41:35;;;;;;;5.45;2.15;;;14.70;99.90;;;;;;5093759;28;20032;-71
2021/08/02 01:44:01;;;;;;;4.13;1.48;;;14.70;99.90;;;;;;5093814;28;20113;-71
2021/08/02 01:46:44;;;;;;;7.00;1.80;;;14.70;99.90;;;;;;5093804;28;20098;-71
2021/08/02 01:49:21;;;;;;;4.20;1.80;;;14.70;99.90;;;;;;5093561;28;20408;-71
2021/08/02 01:51:50;;;;;;;10.05;1.83;;;14.60;99.90;;;;;;5094270;28;20044;-71
2021/08/02 01:54:58;;;;;;;6.07;1.63;;;14.60;99.90;;;;;;5094184;28;20106;-70
2021/08/02 01:57:38;;;;;;;6.72;2.13;;;14.60;99.90;;;;;;5094217;28;20372;-71
2021/08/02 02:00:13;;;;;;;4.50;1.50;;;14.60;99.90;;;;;;5093250;28;20062;-71
2021/08/02 02:02:42;;;;;;;6.18;1.73;;;14.60;99.90;;;;;;5093573;28;20040;-70
2021/08/02 02:05:18;;;;;;;8.10;1.90;;;14.60;99.90;;;;;;5093884;28;20040;-70
2021/08/02 02:07:55;;;;;;;4.72;1.77;;;14.60;99.90;;;;;;5093678;28;20038;-70
2021/08/02 02:10:24;;;;;;;4.22;1.90;;;14.60;99.90;;;;;;5093194;28;20039;-70
2021/08/02 02:12:52;;;;;;;6.60;1.60;;;14.60;99.90;;;;;;5093429;28;20036;-71
2021/08/02 02:15:18;;;;;;;8.43;1.85;;;14.60;99.90;;;;;;5093744;28;20579;-70
2021/08/02 02:17:45;;;;;;;3.60;1.48;;;14.60;99.90;;;;;;5093814;28;20107;-70
2021/08/02 02:20:13;;;;;;;4.38;1.50;;;14.60;99.90;;;;;;5093159;28;20036;-70
2021/08/02 02:22:39;;;;;;;6.10;1.65;;;14.60;99.90;;;;;;5092727;28;20424;-71
2021/08/02 02:25:07;;;;;;;2.63;1.60;;;14.70;99.90;;;;;;5094006;28;20062;-70
2021/08/02 02:27:35;;;;;;;8.95;1.52;;;14.70;99.90;;;;;;5093480;28;20074;-71
2021/08/02 02:30:03;;;;;;;6.13;1.73;;;14.60;99.90;;;;;;5093358;28;20036;-70
2021/08/02 02:32:30;;;;;;;6.88;2.10;;;14.70;99.90;;;;;;5093170;28;20068;-71
2021/08/02 02:34:56;;;;;;;5.63;1.80;;;14.70;99.90;;;;;;5093603;28;20119;-71
2021/08/02 02:37:24;;;;;;;4.53;1.67;;;14.70;99.90;;;;;;5093278;28;20046;-71
2021/08/02 02:39:53;;;;;;;6.15;2.03;;;14.70;99.90;;;;;;5092949;28;20109;-71
2021/08/02 02:42:20;;;;;;;6.18;2.05;;;14.70;99.90;;;;;;5093113;28;20411;-70
2021/08/02 02:44:47;;;;;;;4.60;2.03;;;14.70;99.90;;;;;;5093556;28;20086;-71
2021/08/02 02:47:13;;;;;;;5.60;2.20;;;14.60;99.90;;;;;;5093109;28;20036;-71
2021/08/02 02:49:40;;;;;;;6.15;2.10;;;14.60;99.90;;;;;;5092839;28;20044;-71
2021/08/02 02:52:08;;;;;;;6.35;1.80;;;14.60;99.90;;;;;;5096122;28;20525;-71
2021/08/02 02:54:35;;;;;;;6.40;2.63;;;14.60;99.90;;;;;;5097326;28;20039;-71
2021/08/02 02:57:03;;;;;;;5.63;1.90;;;14.60;99.90;;;;;;5096899;28;20078;-71
2021/08/02 02:59:28;;;;;;;3.92;1.70;;;14.60;99.90;;;;;;5096552;28;20514;-71
2021/08/02 03:01:57;;;;;;;10.05;2.28;;;14.60;99.90;;;;;;5096746;28;20032;-70
2021/08/02 03:04:28;;;;;;;6.60;2.15;;;14.60;99.90;;;;;;5097437;28;20468;-71
2021/08/02 03:06:55;;;;;;;4.85;1.67;;;14.50;99.90;;;;;;5097247;28;20062;-71
2021/08/02 03:09:24;;;;;;;8.07;1.60;;;14.50;99.90;;;;;;5096452;28;20082;-71
2021/08/02 03:11:50;;;;;;;5.78;1.92;;;14.50;99.90;;;;;;5096655;28;20032;-71
2021/08/02 03:14:16;;;;;;;6.60;1.63;;;14.50;99.90;;;;;;5097103;28;20043;-71
2021/08/02 03:16:42;;;;;;;8.30;2.40;;;14.50;99.90;;;;;;5097189;28;20062;-71
2021/08/02 03:19:08;;;;;;;6.68;1.80;;;14.50;99.90;;;;;;5096921;28;20074;-71
2021/08/02 03:21:33;;;;;;;6.63;1.60;;;14.50;99.90;;;;;;5096606;28;20036;-71
2021/08/02 03:24:15;;;;;;;3.38;1.73;;;14.50;99.90;;;;;;5096636;28;20110;-71
2021/08/02 03:27:01;;;;;;;4.18;1.33;;;14.50;99.90;;;;;;5096681;28;20044;-71
2021/08/02 03:29:32;;;;;;;4.25;1.25;;;14.50;99.90;;;;;;5096425;28;20046;-71
2021/08/02 03:32:02;;;;;;;3.20;1.02;;;14.50;99.90;;;;;;5096438;28;20376;-71
2021/08/02 03:34:32;;;;;;;5.03;1.33;;;14.50;99.90;;;;;;5096359;28;20487;-71
2021/08/02 03:37:00;;;;;;;4.68;1.23;;;14.50;99.90;;;;;;5096200;28;20040;-71
2021/08/02 03:39:27;;;;;;;3.15;1.30;;;14.50;99.90;;;;;;5095841;28;20047;-71
2021/08/02 03:41:54;;;;;;;4.38;1.48;;;14.50;99.90;;;;;;5096053;28;20032;-71
2021/08/02 03:44:22;;;;;;;3.63;1.50;;;14.50;99.90;;;;;;5096135;28;20036;-71
2021/08/02 03:46:47;;;;;;;3.83;1.30;;;14.50;99.90;;;;;;5096527;28;20032;-71
2021/08/02 03:49:14;;;;;;;4.03;1.38;;;14.50;99.90;;;;;;5095634;28;20044;-71
2021/08/02 03:51:45;;;;;;;3.83;1.20;;;14.50;99.90;;;;;;5096381;28;20043;-71
2021/08/02 03:54:11;;;;;;;5.68;1.50;;;14.50;99.90;;;;;;5096624;28;20038;-71
2021/08/02 03:56:39;;;;;;;2.80;1.45;;;14.50;99.90;;;;;;5096489;28;20040;-71
2021/08/02 03:59:04;;;;;;;5.45;1.48;;;14.50;99.90;;;;;;5095553;28;20036;-71
2021/08/02 04:01:40;;;;;;;3.40;1.08;;;14.50;99.90;;;;;;5095888;28;20047;-71
2021/08/02 04:04:06;;;;;;;8.05;2.03;;;14.50;99.90;;;;;;5095735;28;20060;-71
2021/08/02 04:06:34;;;;;;;4.32;1.10;;;14.50;99.90;;;;;;5095822;28;20492;-71
2021/08/02 04:09:00;;;;;;;4.32;1.50;;;14.50;99.90;;;;;;5095399;28;20039;-71
2021/08/02 04:11:34;;;;;;;3.30;1.95;;;14.50;99.90;;;;;;5095666;28;20072;-71
2021/08/02 04:13:59;;;;;;;2.28;1.20;;;14.40;99.90;;;;;;5095362;28;20392;-70
2021/08/02 04:16:25;;;;;;;5.43;1.10;;;14.40;99.90;;;;;;5095901;28;20032;-71
2021/08/02 04:18:51;;;;;;;4.15;1.70;;;14.50;99.90;;;;;;5094045;28;20552;-71
2021/08/02 04:21:17;;;;;;;6.28;1.58;;;14.50;99.90;;;;;;5095252;28;20040;-71
2021/08/02 04:23:43;;;;;;;5.70;2.03;;;14.50;99.90;;;;;;5095467;28;20396;-71
2021/08/02 04:26:12;;;;;;;4.88;1.40;;;14.50;99.90;;;;;;5095273;28;20039;-71
2021/08/02 04:28:42;;;;;;;8.07;1.90;;;14.50;99.90;;;;;;5095118;28;20036;-70
2021/08/02 04:31:08;;;;;;;2.25;1.42;;;14.50;99.90;;;;;;5095720;28;20051;-70
2021/08/02 04:33:34;;;;;;;3.42;1.33;;;14.50;99.90;;;;;;5095694;28;20040;-71
2021/08/02 04:36:02;;;;;;;4.60;2.15;;;14.50;99.90;;;;;;5095006;28;20036;-71
2021/08/02 04:38:28;;;;;;;10.52;2.25;;;14.50;99.90;;;;;;5095150;28;20051;-71
2021/08/02 04:40:55;;;;;;;4.95;1.30;;;14.50;99.90;;;;;;5094768;28;20040;-71
2021/08/02 04:43:21;;;;;;;7.60;1.73;;;14.50;99.90;;;;;;5094909;28;20064;-71
2021/08/02 04:45:46;;;;;;;6.82;1.70;;;14.50;99.90;;;;;;5095146;28;20071;-71
2021/08/02 04:48:12;;;;;;;11.43;3.60;;;14.50;99.90;;;;;;5094926;28;20036;-71
2021/08/02 04:50:38;;;;;;;6.47;1.60;;;14.50;99.90;;;;;;5094565;28;20047;-71
2021/08/02 04:53:05;;;;;;;5.63;1.52;;;14.50;99.90;;;;;;5094730;28;20038;-71
2021/08/02 04:55:31;;;;;;;7.38;2.05;;;14.50;99.90;;;;;;5094671;28;20031;-71
2021/08/02 04:57:56;;;;;;;7.63;1.50;;;14.50;99.90;;;;;;5095006;28;20040;-71
2021/08/02 05:00:22;;;;;;;8.63;2.00;;;14.50;99.90;;;;;;5094615;28;20053;-71
2021/08/02 05:02:47;;;;;;;8.25;1.45;;;14.50;99.90;;;;;;5094574;28;20039;-71
2021/08/02 05:05:13;;;;;;;5.70;1.80;;;14.50;99.90;;;;;;5094640;28;20068;-71
2021/08/02 05:07:39;;;;;;;7.68;1.50;;;14.50;99.90;;;;;;5094395;28;20044;-71
2021/08/02 05:10:05;;;;;;;3.72;1.80;;;14.70;99.90;;;;;;5094123;28;20078;-71
2021/08/02 05:12:31;;;;;;;7.35;1.70;;;14.80;99.90;;;;;;5094264;28;20392;-71
2021/08/02 05:15:06;;;;;;;8.05;1.55;;;14.90;99.90;;;;;;5094245;28;20047;-71
2021/08/02 05:17:32;;;;;;;3.30;1.30;;;15.00;99.90;;;;;;5095037;28;20047;-71
2021/08/02 05:19:58;;;;;;;3.45;1.65;;;14.90;99.90;;;;;;5093762;28;20040;-71
2021/08/02 05:22:24;;;;;;;6.53;2.10;;;14.90;99.90;;;;;;5092955;28;20047;-73
2021/08/02 05:24:52;;;;;;;4.65;1.50;;;14.80;99.90;;;;;;5094327;28;20388;-72
2021/08/02 05:27:18;;;;;;;5.07;1.80;;;14.80;99.90;;;;;;5094176;28;20046;-72
2021/08/02 05:29:43;;;;;;;4.75;1.55;;;14.70;99.90;;;;;;5093853;28;20040;-72
2021/08/02 05:32:10;;;;;;;4.10;1.75;;;14.70;99.90;;;;;;5093823;28;20063;-72
2021/08/02 05:34:40;;;;;;;6.32;1.73;;;14.70;99.90;;;;;;5093974;28;20028;-72
2021/08/02 05:37:09;;;;;;;7.38;2.75;;;14.60;99.90;;;;;;5092820;28;20043;-72
2021/08/02 05:39:35;;;;;;;7.15;1.70;;;14.70;99.90;;;;;;5093611;28;20047;-72
2021/08/02 05:42:01;;;;;;;6.68;2.00;;;14.80;99.90;;;;;;5093794;28;20040;-72
2021/08/02 05:44:27;;;;;;;3.78;1.77;;;15.20;99.90;;;;;;5093293;28;20032;-72
2021/08/02 05:46:53;;;;;;;3.00;1.60;;;15.60;99.90;;;;;;5093850;28;20032;-72
2021/08/02 05:49:19;;;;;;;5.88;2.22;;;15.90;99.90;;;;;;5093521;28;20036;-72
2021/08/02 05:51:46;;;;;;;6.00;1.85;;;16.30;99.90;;;;;;5094032;28;20126;-73
2021/08/02 05:54:12;;;;;;;6.82;2.05;;;16.50;99.90;;;;;;5093831;28;20075;-73
2021/08/02 05:56:38;;;;;;;7.80;2.13;;;16.70;99.90;;;;;;5093914;28;20492;-72
2021/08/02 05:59:04;;;;;;;8.02;2.38;;;17.10;99.90;;;;;;5093948;28;20036;-72
2021/08/02 06:01:32;;;;;;;5.50;1.90;;;17.20;99.90;;;;;;5093822;28;20044;-72
2021/08/02 06:03:57;;;;;;;9.02;1.60;;;17.40;99.90;;;;;;5093759;28;20392;-72
2021/08/02 06:06:23;;;;;;;4.75;1.27;;;17.50;99.90;;;;;;5093699;28;20036;-72
2021/08/02 06:08:49;;;;;;;12.38;2.25;;;17.70;99.90;;;;;;5093487;28;20085;-72
2021/08/02 06:11:14;;;;;;;7.43;1.88;;;17.70;99.90;;;;;;5093444;28;20088;-72
2021/08/02 06:13:41;;;;;;;8.50;1.95;;;17.90;99.90;;;;;;5092303;28;20043;-72
2021/08/02 06:16:06;;;;;;;2.47;1.27;;;18.00;99.90;;;;;;5093672;28;20036;-73
2021/08/02 06:18:35;;;;;;;6.70;1.50;;;18.10;99.90;;;;;;5093184;28;20032;-72
2021/08/02 06:21:01;;;;;;;3.75;1.40;;;18.20;99.90;;;;;;5092103;28;20088;-72
2021/08/02 06:23:26;;;;;;;6.95;1.75;;;18.40;99.90;;;;;;5093635;28;20040;-72
2021/08/02 06:25:55;;;;;;;7.15;1.50;;;18.60;99.90;;;;;;5094906;28;20463;-72
2021/08/02 06:28:21;;;;;;;5.93;1.25;;;18.70;99.90;;;;;;5098197;28;20464;-72
2021/08/02 06:30:46;;;;;;;6.05;1.38;;;18.70;99.90;;;;;;5097145;28;20051;-73
2021/08/02 06:33:12;;;;;;;3.78;1.30;;;18.80;99.90;;;;;;5097534;28;20036;-72
2021/08/02 06:35:38;;;;;;;3.53;1.48;;;18.90;99.90;;;;;;5097767;28;20123;-73
2021/08/02 06:38:04;;;;;;;3.38;0.90;;;19.00;99.90;;;;;;5097673;28;20476;-73
2021/08/02 06:40:30;;;;;;;5.45;1.38;;;18.90;99.90;;;;;;5096979;28;20047;-72
2021/08/02 06:42:55;;;;;;;6.30;1.50;;;18.90;99.90;;;;;;5097500;28;20044;-72
2021/08/02 06:45:24;;;;;;;6.72;1.08;;;19.10;99.90;;;;;;5096184;28;20507;-72
2021/08/02 06:47:50;;;;;;;4.70;1.30;;;19.30;99.90;;;;;;5097297;28;20042;-72
2021/08/02 06:50:15;;;;;;;4.65;1.30;;;19.50;99.90;;;;;;5096833;28;20043;-73
2021/08/02 06:52:41;;;;;;;4.32;1.20;;;19.60;99.90;;;;;;5097512;28;20059;-72
2021/08/02 06:55:08;;;;;;;3.92;1.10;;;19.50;99.90;;;;;;5097515;28;20035;-72
2021/08/02 06:57:35;;;;;;;2.78;0.95;;;19.20;99.90;;;;;;5096884;28;20506;-72
2021/08/02 07:00:01;;;;;;;4.70;1.40;;;18.80;99.90;;;;;;5095648;28;20085;-72
2021/08/02 07:02:27;;;;;;;4.03;1.08;;;18.60;99.90;;;;;;5096812;28;20036;-72
2021/08/02 07:04:52;;;;;;;8.80;1.40;;;18.40;99.90;;;;;;5097154;28;20043;-72
2021/08/02 07:07:18;;;;;;;4.07;1.00;;;18.20;99.90;;;;;;5097414;28;20430;-72
2021/08/02 07:09:44;;;;;;;5.15;1.33;;;18.10;99.90;;;;;;5096435;28;20043;-72
2021/08/02 07:12:09;;;;;;;5.50;1.60;;;17.80;99.90;;;;;;5096486;28;20040;-72
2021/08/02 07:14:35;;;;;;;8.15;1.45;;;17.70;99.90;;;;;;5096581;28;20122;-72
2021/08/02 07:17:01;;;;;;;4.93;1.13;;;17.70;99.90;;;;;;5096765;28;20047;-72
2021/08/02 07:19:26;;;;;;;4.80;1.48;;;17.60;99.90;;;;;;5095285;28;20384;-72
2021/08/02 07:21:52;;;;;;;9.23;1.50;;;17.60;99.90;;;;;;5096398;28;20047;-72
2021/08/02 07:24:18;;;;;;;7.43;1.52;;;18.00;99.90;;;;;;5096896;28;20047;-72
2021/08/02 07:26:44;;;;;;;10.50;1.42;;;18.20;99.90;;;;;;5096491;28;20040;-72
2021/08/02 07:29:09;;;;;;;7.97;1.30;;;18.20;99.90;;;;;;5096162;28;20040;-72
2021/08/02 07:31:35;;;;;;;6.55;1.30;;;18.20;99.90;;;;;;5096569;28;20032;-72
2021/08/02 07:34:01;;;;;;;6.00;1.83;;;18.20;99.90;;;;;;5096805;28;20067;-72
2021/08/02 07:36:26;;;;;;;3.47;1.23;;;18.10;99.90;;;;;;5095507;28;20043;-72
2021/08/02 07:38:52;;;;;;;6.15;1.10;;;18.00;99.90;;;;;;5095734;28;20049;-73
2021/08/02 07:41:19;;;;;;;3.63;0.88;;;18.00;99.90;;;;;;5096292;28;20067;-74
2021/08/02 07:43:45;;;;;;;1.45;0.60;;;17.80;99.90;;;;;;5096031;28;20032;-72
2021/08/02 07:46:12;;;;;;;3.05;0.82;;;17.70;99.90;;;;;;5096250;28;20047;-72
2021/08/02 07:48:38;;;;;;;2.78;0.65;;;17.50;99.90;;;;;;5095599;28;20553;-72
2021/08/02 07:51:04;;;;;;;2.03;0.70;;;17.40;99.90;;;;;;5096266;28;20040;-72
2021/08/02 07:53:30;;;;;;;3.30;0.43;;;17.30;99.90;;;;;;5095829;28;20484;-72
2021/08/02 07:55:56;;;;;;;4.57;1.52;;;17.20;99.90;;;;;;5095935;28;20036;-72
2021/08/02 07:58:22;;;;;;;2.08;0.65;;;17.10;99.90;;;;;;5096340;28;20043;-72
2021/08/02 08:00:48;;;;;;;1.23;0.80;;;17.10;99.90;;;;;;5095093;28;20056;-72
2021/08/02 08:03:13;;;;;;;1.65;0.65;;;17.20;99.90;;;;;;5095700;28;20040;-71
2021/08/02 08:05:40;;;;;;;4.97;0.52;;;17.30;99.90;;;;;;5096267;28;20067;-72
2021/08/02 08:08:05;;;;;;;5.57;1.38;;;17.40;99.90;;;;;;5096181;28;20058;-72
2021/08/02 08:10:31;;;;;;;2.78;0.60;;;17.50;99.90;;;;;;5095512;28;20077;-72
2021/08/02 08:12:57;;;;;;;1.58;0.50;;;17.60;99.90;;;;;;5095461;28;20068;-72
2021/08/02 08:15:24;;;;;;;2.28;0.95;;;17.80;99.90;;;;;;5095556;28;20070;-72
2021/08/02 08:17:50;;;;;;;3.00;0.70;;;18.50;99.90;;;;;;5095449;28;20043;-72
2021/08/02 08:20:20;;;;;;;1.92;0.47;;;18.70;99.90;;;;;;5093606;28;20118;-71
2021/08/02 08:22:47;;;;;;;3.75;0.70;;;19.00;99.90;;;;;;5096038;28;20078;-72
2021/08/02 08:25:13;;;;;;;2.22;0.52;;;19.40;99.90;;;;;;5095191;28;20039;-72
2021/08/02 08:27:39;;;;;;;1.67;0.55;;;19.80;98.70;;;;;;5095346;28;20028;-72
2021/08/02 08:30:06;;;;;;;2.95;0.93;;;20.10;98.50;;;;;;5093665;28;20069;-72
2021/08/02 08:32:32;;;;;;;2.35;0.70;;;20.10;97.20;;;;;;5095082;28;20044;-71
2021/08/02 08:34:58;;;;;;;2.20;0.50;;;20.00;96.60;;;;;;5095522;28;20032;-71
2021/08/02 08:37:23;;;;;;;2.08;0.60;;;20.20;97.00;;;;;;5095133;28;20124;-72
2021/08/02 08:39:49;;;;;;;1.90;0.65;;;20.50;96.80;;;;;;5094788;28;20488;-71
2021/08/02 08:42:15;;;;;;;3.17;0.73;;;20.60;97.10;;;;;;5095110;28;20051;-72
2021/08/02 08:44:42;;;;;;;2.63;0.90;;;20.60;96.70;;;;;;5095076;28;20040;-72
2021/08/02 08:47:08;;;;;;;4.75;1.00;;;20.70;96.40;;;;;;5095357;28;20074;-72
2021/08/02 08:49:34;;;;;;;3.35;1.00;;;20.90;97.20;;;;;;5093678;28;20467;-72
2021/08/02 08:52:00;;;;;;;2.83;0.75;;;20.80;97.10;;;;;;5094693;28;20063;-72
2021/08/02 08:54:31;;;;;;;3.10;0.70;;;21.10;96.90;;;;;;5095336;28;20039;-71
2021/08/02 08:56:57;;;;;;;2.72;1.20;;;21.20;97.80;;;;;;5095139;28;20043;-72
2021/08/02 08:59:23;;;;;;;3.00;1.10;;;21.40;96.80;;;;;;5094216;28;20400;-72
2021/08/02 09:02:00;;;;;;;2.72;0.60;;;21.50;97.40;;;;;;5094809;28;20042;-70
2021/08/02 09:04:30;;;;;;;3.60;0.65;;;21.40;96.00;;;;;;5094740;28;20039;-70
2021/08/02 09:07:00;;;;;;;6.43;1.10;;;21.20;98.40;;;;;;5094429;28;20040;-70
2021/08/02 09:09:30;;;;;;;3.10;0.98;;;20.90;96.80;;;;;;5094304;28;20048;-70
2021/08/02 09:12:19;;;;;;;3.55;0.50;;;20.60;98.00;;;;;;5094493;28;20050;-70
2021/08/02 09:14:55;;;;;;;1.95;0.55;;;20.40;99.40;;;;;;5093284;28;20040;-70
2021/08/02 09:17:38;;;;;;;3.90;0.90;;;20.10;99.90;;;;;;5094420;28;20050;-70
2021/08/02 09:20:21;;;;;;;7.03;1.10;;;19.90;99.30;;;;;;5094089;28;20380;-70
2021/08/02 09:22:48;;;;;;;4.05;1.00;;;19.50;99.90;;;;;;5094167;28;20089;-70
2021/08/02 09:25:16;;;;;;;7.00;1.25;;;19.00;99.90;;;;;;5094487;28;20032;-71
2021/08/02 09:27:43;;;;;;;4.13;1.38;;;18.40;99.90;;;;;;5094205;28;20077;-71
2021/08/02 09:30:13;;;;;;;5.63;1.38;;;18.00;99.90;;;;;;5093449;28;20485;-68
2021/08/02 09:32:52;;;;;;;3.03;1.10;;;17.50;99.90;;;;;;5094221;28;20118;-68
2021/08/02 09:35:30;;;;;;;2.55;1.13;;;17.40;99.90;;;;;;5083920;28;20043;-68
2021/08/02 09:38:07;;;;;;;2.00;1.10;;;17.30;99.90;;;;;;5074123;28;20066;-68
2021/08/02 09:40:53;;;;;;;3.83;0.95;;;17.20;99.90;;;;;;5073225;28;20051;-68
2021/08/02 09:43:21;;;;;;;1.75;0.65;;;17.10;99.90;;;;;;5074260;28;20388;-68
2021/08/02 09:45:52;;;;;;;5.15;1.65;;;17.00;99.90;;;;;;5073473;28;20037;-68
2021/08/02 09:48:32;;;;;;;2.63;1.08;;;17.10;99.90;;;;;;5073715;28;20051;-68
2021/08/02 09:51:09;;;;;;;4.38;1.25;;;17.10;99.90;;;;;;5073569;28;20469;-68
2021/08/02 09:53:42;;;;;;;5.13;0.93;;;17.20;99.90;;;;;;5073801;28;20130;-68
2021/08/02 09:56:12;;;;;;;4.32;1.00;;;17.30;99.90;;;;;;5073647;28;20044;-68
2021/08/02 09:58:40;;;;;;;3.50;1.23;;;17.40;99.90;;;;;;5073611;28;20051;-68
2021/08/02 10:01:06;;;;;;;4.20;1.08;;;17.50;99.90;;;;;;5073708;28;20037;-68
2021/08/02 10:03:33;;;;;;;6.15;1.40;;;17.60;99.90;;;;;;5073469;28;20044;-67
2021/08/02 10:06:00;;;;;;;6.32;1.30;;;17.70;99.90;;;;;;5074012;28;20456;-67
2021/08/02 10:08:28;;;;;;;3.60;0.95;;;17.70;99.90;;;;;;5073740;28;20068;-68
2021/08/02 10:10:53;;;;;;;3.85;0.88;;;17.70;99.90;;;;;;5073617;28;20040;-68
2021/08/02 10:13:28;;;;;;;3.80;1.02;;;17.80;99.90;;;;;;5073163;28;20127;-68
2021/08/02 10:15:56;;;;;;;5.88;1.10;;;17.80;99.90;;;;;;5073117;28;20040;-67
2021/08/02 10:18:25;;;;;;;3.35;1.10;;;18.00;99.90;;;;;;5073492;28;20120;-67
2021/08/02 10:21:08;;;;;;;4.43;0.90;;;18.00;99.90;;;;;;5073038;28;20029;-68
2021/08/02 10:23:34;;;;;;;4.07;1.17;;;18.10;99.90;;;;;;5073342;28;20508;-68
2021/08/02 10:26:00;;;;;;;2.78;1.10;;;18.10;99.90;;;;;;5073828;28;20064;-68
2021/08/02 10:28:27;;;;;;;3.85;0.70;;;18.20;99.90;;;;;;5073147;28;20480;-68
2021/08/02 10:31:06;;;;;;;3.92;1.10;;;18.20;99.90;;;;;;5073062;28;20055;-68
2021/08/02 10:33:39;;;;;;;4.25;1.35;;;18.30;99.90;;;;;;5073083;28;20543;-68
2021/08/02 10:36:15;;;;;;;5.40;1.10;;;18.20;99.90;;;;;;5073105;28;20047;-68
2021/08/02 10:38:45;;;;;;;4.13;1.10;;;18.20;99.90;;;;;;5073399;28;20036;-66
2021/08/02 10:41:21;;;;;;;4.28;1.15;;;18.00;99.90;;;;;;5073258;28;20040;-67
2021/08/02 10:43:47;;;;;;;4.13;1.20;;;18.00;99.90;;;;;;5073854;28;20071;-68
2021/08/02 10:46:25;;;;;;;5.15;1.40;;;17.90;99.90;;;;;;5072871;28;20164;-67
2021/08/02 10:49:07;;;;;;;3.33;1.00;;;17.90;99.90;;;;;;5072511;28;20055;-67
2021/08/02 10:51:48;;;;;;;4.22;1.20;;;17.90;99.90;;;;;;5073037;28;20048;-67
2021/08/02 10:54:14;;;;;;;3.05;1.10;;;17.80;99.90;;;;;;5072779;28;20093;-68
2021/08/02 10:56:41;;;;;;;3.45;1.05;;;17.80;99.90;;;;;;5073277;28;20147;-68
2021/08/02 10:59:07;;;;;;;6.90;1.13;;;17.90;99.90;;;;;;5072840;28;20512;-68
2021/08/02 11:01:36;;;;;;;2.70;1.10;;;17.90;99.90;;;;;;5072689;28;20068;-68
2021/08/02 11:04:11;;;;;;;3.15;0.70;;;18.00;99.90;;;;;;5072943;28;20044;-67
2021/08/02 11:06:36;;;;;;;3.30;0.60;;;18.10;99.90;;;;;;5072657;28;20033;-67
2021/08/02 11:09:02;;;;;;;3.10;0.68;;;18.10;99.90;;;;;;5072327;28;20040;-68
2021/08/02 11:11:30;;;;;;;5.00;0.77;;;18.10;99.90;;;;;;5073113;28;20041;-67
2021/08/02 11:14:05;;;;;;;2.10;0.50;;;18.20;99.90;;;;;;5076067;28;20036;-68
2021/08/02 11:16:41;;;;;;;2.83;0.70;;;18.20;99.90;;;;;;5076858;28;20540;-68
2021/08/02 11:19:17;;;;;;;2.80;0.80;;;18.30;99.90;;;;;;5075975;28;20492;-67
2021/08/02 11:21:44;;;;;;;3.15;0.57;;;18.30;99.90;;;;;;5076200;28;20492;-67
2021/08/02 11:24:11;;;;;;;2.33;0.73;;;18.30;99.90;;;;;;5076380;28;20071;-68
2021/08/02 11:26:47;;;;;;;3.47;0.85;;;18.30;99.90;;;;;;5076776;28;20434;-68
2021/08/02 11:29:21;;;;;;;3.83;0.60;;;18.40;99.90;;;;;;5076012;28;20123;-67
2021/08/02 11:32:03;;;;;;;5.95;0.80;;;18.40;99.90;;;;;;5076531;28;20112;-67
2021/08/02 11:34:30;;;;;;;4.72;0.65;;;18.50;99.90;;;;;;5076179;28;20036;-67
2021/08/02 11:37:06;;;;;;;3.42;0.52;;;18.60;99.90;;;;;;5075894;28;20044;-67
2021/08/02 11:39:43;;;;;;;3.55;1.02;;;18.60;99.90;;;;;;5074346;28;20094;-69
2021/08/02 11:42:16;;;;;;;3.70;0.90;;;18.80;99.90;;;;;;5076193;28;20040;-69
2021/08/02 11:44:51;;;;;;;0.80;0.52;;;18.90;99.90;;;;;;5075947;28;20132;-69
2021/08/02 11:47:28;;;;;;;2.22;0.82;;;18.90;99.90;;;;;;5076260;28;20477;-69
2021/08/02 11:49:56;;;;;;;1.55;0.55;;;18.80;99.90;;;;;;5075809;28;20538;-68
2021/08/02 11:52:26;;;;;;;1.65;0.60;;;18.80;99.90;;;;;;5076022;28;20041;-68
2021/08/02 11:55:07;;;;;;;3.58;0.73;;;18.80;99.90;;;;;;5076182;28;20131;-68
2021/08/02 11:57:34;;;;;;;4.28;0.70;;;18.90;99.90;;;;;;5076090;28;20048;-67
2021/08/02 12:00:01;;;;;;;5.35;0.75;;;18.80;99.90;;;;;;5075093;28;20037;-67
2021/08/02 12:02:34;;;;;;;7.35;1.17;;;18.70;99.90;;;;;;5075500;28;20055;-68
2021/08/02 12:05:00;;;;;;;1.83;0.70;;;18.90;99.90;;;;;;5075853;28;20044;-67
2021/08/02 12:07:32;;;;;;;2.25;0.50;;;19.00;99.90;;;;;;5075501;28;20033;-67
2021/08/02 12:10:17;;;;;;;2.35;0.85;;;19.20;99.90;;;;;;5075302;28;20097;-67
2021/08/02 12:12:44;;;;;;;2.40;0.70;;;19.20;99.90;;;;;;5075535;28;20064;-67
2021/08/02 12:15:11;;;;;;;4.10;0.95;;;19.30;99.90;;;;;;5075227;28;20412;-68
2021/08/02 12:17:50;;;;;;;1.88;0.52;;;19.30;99.90;;;;;;5075591;28;20389;-66
2021/08/02 12:20:37;;;;;;;1.27;0.57;;;19.40;99.90;;;;;;5074874;28;20481;-68
2021/08/02 12:23:05;;;;;;;2.95;0.63;;;19.50;99.90;;;;;;5075093;28;20040;-68
2021/08/02 12:25:39;;;;;;;2.40;0.68;;;19.40;99.90;;;;;;5075382;28;20040;-68
2021/08/02 12:28:06;;;;;;;3.45;0.93;;;19.50;99.90;;;;;;5075101;28;20040;-67
2021/08/02 12:30:33;;;;;;;4.05;0.40;;;19.50;99.90;;;;;;5075177;28;20068;-68
2021/08/02 12:32:58;;;;;;;2.28;0.40;;;19.40;99.90;;;;;;5074737;28;20041;-68
2021/08/02 12:35:25;;;;;;;1.08;0.40;;;19.30;99.90;;;;;;5075404;28;20039;-69
2021/08/02 12:37:51;;;;;;;1.70;0.40;;;19.10;99.90;;;;;;5075141;28;20123;-68
2021/08/02 12:40:18;;;;;;;1.52;0.50;;;19.20;99.90;;;;;;5074580;28;20115;-68
2021/08/02 12:42:47;;;;;;;5.75;3.30;;;19.30;99.90;;;;;;5075489;28;20044;-68
2021/08/02 12:45:14;;;;;;;1.02;0.57;;;19.40;99.90;;;;;;5074032;28;20396;-66
2021/08/02 12:47:40;;;;;;;2.55;0.28;;;19.50;99.90;;;;;;5074731;28;20045;-67
2021/08/02 12:50:08;;;;;;;2.42;0.40;;;19.60;99.90;;;;;;5074252;28;20472;-68
2021/08/02 12:52:34;;;;;;;1.98;0.30;;;19.70;99.90;;;;;;5074667;28;20075;-68
2021/08/02 12:55:03;;;;;;;1.95;0.50;;;19.70;99.90;;;;;;5074690;28;20052;-68
2021/08/02 12:57:30;;;;;;;2.35;0.55;;;19.70;99.90;;;;;;5073629;28;20488;-68